createdAt,value
2018-08-16T00:00:31.455Z,58.00
2018-08-16T00:01:31.693Z,58.00
2018-08-16T00:02:31.934Z,58.00
2018-08-16T00:03:32.168Z,58.00
2018-08-16T00:04:32.409Z,58.00
2018-08-16T00:05:32.660Z,58.00
2018-08-16T00:06:32.923Z,58.00
2018-08-16T00:07:33.135Z,58.00
2018-08-16T00:08:33.377Z,58.00
2018-08-16T00:09:33.610Z,58.00
2018-08-16T00:10:33.850Z,58.00
2018-08-16T00:11:34.091Z,58.00
2018-08-16T00:12:34.334Z,58.00
2018-08-16T00:13:34.579Z,58.00
2018-08-16T00:14:34.818Z,58.00
2018-08-16T00:15:35.076Z,58.00
2018-08-16T00:16:35.318Z,58.00
2018-08-16T00:17:35.558Z,58.00
2018-08-16T00:18:35.798Z,58.00
2018-08-16T00:19:36.038Z,58.00
2018-08-16T00:20:36.282Z,58.00
2018-08-16T00:21:36.516Z,58.00
2018-08-16T00:22:36.749Z,58.00
2018-08-16T00:23:36.978Z,58.00
2018-08-16T00:24:37.219Z,58.00
2018-08-16T00:25:37.475Z,58.00
2018-08-16T00:26:37.693Z,58.00
2018-08-16T00:27:37.936Z,58.00
2018-08-16T00:28:38.165Z,58.00
2018-08-16T00:29:38.428Z,58.00
2018-08-16T00:30:38.631Z,58.00
2018-08-16T00:31:38.873Z,58.00
2018-08-16T00:32:39.115Z,58.00
2018-08-16T00:33:39.374Z,58.00
2018-08-16T00:34:39.588Z,58.00
2018-08-16T00:35:39.827Z,58.00
2018-08-16T00:36:40.061Z,58.00
2018-08-16T00:37:40.301Z,58.00
2018-08-16T00:38:40.539Z,58.00
2018-08-16T00:39:40.783Z,58.00
2018-08-16T00:40:41.023Z,58.00
2018-08-16T00:41:41.268Z,60.00
2018-08-16T00:42:41.537Z,58.00
2018-08-16T00:43:41.773Z,58.00
2018-08-16T00:44:42.006Z,58.00
2018-08-16T00:45:42.246Z,58.00
2018-08-16T00:46:42.491Z,58.00
2018-08-16T00:47:42.722Z,58.00
2018-08-16T00:48:42.959Z,58.00
2018-08-16T00:49:43.218Z,58.00
2018-08-16T00:50:43.435Z,59.00
2018-08-16T00:51:43.660Z,58.00
2018-08-16T00:52:43.907Z,58.00
2018-08-16T00:53:44.144Z,58.00
2018-08-16T00:54:44.369Z,58.00
2018-08-16T00:55:44.599Z,58.00
2018-08-16T00:56:44.842Z,58.00
2018-08-16T00:57:45.081Z,58.00
2018-08-16T00:58:45.316Z,58.00
2018-08-16T00:59:45.578Z,58.00
2018-08-16T01:00:45.811Z,58.00
2018-08-16T01:01:46.039Z,58.00
2018-08-16T01:02:46.263Z,58.00
2018-08-16T01:03:46.525Z,58.00
2018-08-16T01:04:46.765Z,58.00
2018-08-16T01:05:47.000Z,58.00
2018-08-16T01:06:47.238Z,58.00
2018-08-16T01:07:47.478Z,58.00
2018-08-16T01:08:47.719Z,58.00
2018-08-16T01:09:47.964Z,58.00
2018-08-16T01:10:48.203Z,58.00
2018-08-16T01:11:48.440Z,58.00
2018-08-16T01:12:48.677Z,58.00
2018-08-16T01:13:48.918Z,58.00
2018-08-16T01:14:49.157Z,58.00
2018-08-16T01:15:49.399Z,58.00
2018-08-16T01:16:49.634Z,58.00
2018-08-16T01:17:49.868Z,58.00
2018-08-16T01:18:50.103Z,58.00
2018-08-16T01:19:50.332Z,58.00
2018-08-16T01:20:50.592Z,58.00
2018-08-16T01:21:50.835Z,58.00
2018-08-16T01:22:51.095Z,58.00
2018-08-16T01:23:51.339Z,58.00
2018-08-16T01:24:51.564Z,58.00
2018-08-16T01:25:51.825Z,58.00
2018-08-16T01:26:52.066Z,58.00
2018-08-16T01:27:52.305Z,58.00
2018-08-16T01:28:52.548Z,58.00
2018-08-16T01:29:52.789Z,59.00
2018-08-16T01:30:53.017Z,58.00
2018-08-16T01:31:53.255Z,58.00
2018-08-16T01:32:53.503Z,58.00
2018-08-16T01:33:53.729Z,58.00
2018-08-16T01:34:53.971Z,58.00
2018-08-16T01:35:54.207Z,58.00
2018-08-16T01:36:54.480Z,58.00
2018-08-16T01:37:54.688Z,58.00
2018-08-16T01:38:54.932Z,58.00
2018-08-16T01:39:55.170Z,58.00
2018-08-16T01:40:55.403Z,58.00
2018-08-16T01:41:55.675Z,58.00
2018-08-16T01:42:55.894Z,58.00
2018-08-16T01:43:56.132Z,58.00
2018-08-16T01:44:56.378Z,58.00
2018-08-16T01:45:56.628Z,58.00
2018-08-16T01:46:56.855Z,58.00
2018-08-16T01:47:57.085Z,58.00
2018-08-16T01:48:57.366Z,58.00
2018-08-16T01:49:57.584Z,58.00
2018-08-16T01:50:57.848Z,58.00
2018-08-16T01:51:58.095Z,58.00
2018-08-16T01:52:58.309Z,58.00
2018-08-16T01:53:58.572Z,58.00
2018-08-16T01:54:58.812Z,58.00
2018-08-16T01:55:59.040Z,58.00
2018-08-16T01:56:59.280Z,58.00
2018-08-16T01:57:59.526Z,58.00
2018-08-16T01:58:59.751Z,58.00
2018-08-16T01:59:59.992Z,58.00
2018-08-16T02:01:00.223Z,58.00
2018-08-16T02:02:00.484Z,58.00
2018-08-16T02:03:00.706Z,60.00
2018-08-16T02:04:00.965Z,58.00
2018-08-16T02:05:01.221Z,58.00
2018-08-16T02:06:01.437Z,58.00
2018-08-16T02:07:01.668Z,58.00
2018-08-16T02:08:01.936Z,59.00
2018-08-16T02:09:02.153Z,58.00
2018-08-16T02:10:02.395Z,58.00
2018-08-16T02:11:02.636Z,58.00
2018-08-16T02:12:02.872Z,58.00
2018-08-16T02:13:03.109Z,58.00
2018-08-16T02:14:03.350Z,58.00
2018-08-16T02:15:03.584Z,58.00
2018-08-16T02:16:03.824Z,58.00
2018-08-16T02:17:04.058Z,58.00
2018-08-16T02:18:04.296Z,58.00
2018-08-16T02:19:04.536Z,58.00
2018-08-16T02:20:04.774Z,58.00
2018-08-16T02:21:05.029Z,58.00
2018-08-16T02:22:05.261Z,58.00
2018-08-16T02:23:05.503Z,58.00
2018-08-16T02:24:05.737Z,58.00
2018-08-16T02:25:05.979Z,58.00
2018-08-16T02:26:06.219Z,58.00
2018-08-16T02:27:06.456Z,58.00
2018-08-16T02:28:06.697Z,58.00
2018-08-16T02:29:06.938Z,58.00
2018-08-16T02:30:07.187Z,58.00
2018-08-16T02:31:07.430Z,58.00
2018-08-16T02:32:07.676Z,58.00
2018-08-16T02:33:07.930Z,58.00
2018-08-16T02:34:08.141Z,58.00
2018-08-16T02:35:08.390Z,58.00
2018-08-16T02:36:08.623Z,58.00
2018-08-16T02:37:08.865Z,58.00
2018-08-16T02:38:09.109Z,58.00
2018-08-16T02:39:09.335Z,58.00
2018-08-16T02:40:09.578Z,58.00
2018-08-16T02:41:09.815Z,58.00
2018-08-16T02:42:10.057Z,58.00
2018-08-16T02:43:10.297Z,58.00
2018-08-16T02:44:10.526Z,58.00
2018-08-16T02:45:10.767Z,58.00
2018-08-16T02:46:11.012Z,58.00
2018-08-16T02:47:11.240Z,58.00
2018-08-16T02:48:11.477Z,58.00
2018-08-16T02:49:11.715Z,58.00
2018-08-16T02:50:11.955Z,58.00
2018-08-16T02:51:12.197Z,58.00
2018-08-16T02:52:12.426Z,58.00
2018-08-16T02:53:12.654Z,58.00
2018-08-16T02:54:12.902Z,58.00
2018-08-16T02:55:13.151Z,58.00
2018-08-16T02:56:13.381Z,59.00
2018-08-16T02:57:13.619Z,58.00
2018-08-16T02:58:13.849Z,58.00
2018-08-16T02:59:14.103Z,58.00
2018-08-16T03:00:14.336Z,58.00
2018-08-16T03:01:14.578Z,58.00
2018-08-16T03:02:14.812Z,58.00
2018-08-16T03:03:15.049Z,58.00
2018-08-16T03:04:15.289Z,58.00
2018-08-16T03:05:15.534Z,58.00
2018-08-16T03:06:15.824Z,58.00
2018-08-16T03:07:15.992Z,58.00
2018-08-16T03:08:16.233Z,58.00
2018-08-16T03:09:16.477Z,58.00
2018-08-16T03:10:16.716Z,60.00
2018-08-16T03:11:16.971Z,58.00
2018-08-16T03:12:17.186Z,61.00
2018-08-16T03:13:17.437Z,58.00
2018-08-16T03:14:17.678Z,58.00
2018-08-16T03:15:17.920Z,58.00
2018-08-16T03:16:18.160Z,58.00
2018-08-16T03:17:18.394Z,59.00
2018-08-16T03:18:18.639Z,58.00
2018-08-16T03:19:18.879Z,58.00
2018-08-16T03:20:19.119Z,59.00
2018-08-16T03:21:19.361Z,58.00
2018-08-16T03:22:19.600Z,58.00
2018-08-16T03:23:19.840Z,58.00
2018-08-16T03:24:20.086Z,58.00
2018-08-16T03:25:20.316Z,58.00
2018-08-16T03:26:20.558Z,60.00
2018-08-16T03:27:20.794Z,59.00
2018-08-16T03:28:21.049Z,59.00
2018-08-16T03:29:21.272Z,58.00
2018-08-16T03:30:21.499Z,58.00
2018-08-16T03:31:21.765Z,58.00
2018-08-16T03:32:22.001Z,58.00
2018-08-16T03:33:22.242Z,58.00
2018-08-16T03:34:22.480Z,58.00
2018-08-16T03:35:22.789Z,58.00
2018-08-16T03:36:22.972Z,58.00
2018-08-16T03:37:23.198Z,58.00
2018-08-16T03:38:23.434Z,58.00
2018-08-16T03:39:23.668Z,58.00
2018-08-16T03:40:23.922Z,58.00
2018-08-16T03:41:24.131Z,58.00
2018-08-16T03:42:24.378Z,58.00
2018-08-16T03:43:24.611Z,58.00
2018-08-16T03:44:24.859Z,58.00
2018-08-16T03:45:25.083Z,58.00
2018-08-16T03:46:25.325Z,58.00
2018-08-16T03:47:25.566Z,58.00
2018-08-16T03:48:25.804Z,58.00
2018-08-16T03:49:26.041Z,58.00
2018-08-16T03:50:26.268Z,60.00
2018-08-16T03:51:26.505Z,58.00
2018-08-16T03:52:26.738Z,58.00
2018-08-16T03:53:26.978Z,58.00
2018-08-16T03:54:27.217Z,58.00
2018-08-16T03:55:27.456Z,58.00
2018-08-16T03:56:27.695Z,58.00
2018-08-16T03:57:27.932Z,59.00
2018-08-16T03:58:28.167Z,58.00
2018-08-16T03:59:28.432Z,59.00
2018-08-16T04:00:28.635Z,59.00
2018-08-16T04:01:28.871Z,59.00
2018-08-16T04:02:29.110Z,58.00
2018-08-16T04:03:29.377Z,58.00
2018-08-16T04:04:29.589Z,58.00
2018-08-16T04:05:29.827Z,60.00
2018-08-16T04:06:30.058Z,59.00
2018-08-16T04:07:30.293Z,59.00
2018-08-16T04:08:30.523Z,58.00
2018-08-16T04:09:30.766Z,58.00
2018-08-16T04:10:31.007Z,58.00
2018-08-16T04:11:31.249Z,58.00
2018-08-16T04:12:31.481Z,58.00
2018-08-16T04:13:31.712Z,58.00
2018-08-16T04:14:31.949Z,59.00
2018-08-16T04:15:32.181Z,59.00
2018-08-16T04:16:32.419Z,58.00
2018-08-16T04:17:32.656Z,58.00
2018-08-16T04:18:32.900Z,58.00
2018-08-16T04:19:33.127Z,59.00
2018-08-16T04:20:33.362Z,58.00
2018-08-16T04:21:33.596Z,58.00
2018-08-16T04:22:33.835Z,59.00
2018-08-16T04:23:34.130Z,58.00
2018-08-16T04:24:34.306Z,59.00
2018-08-16T04:25:34.562Z,58.00
2018-08-16T04:26:34.790Z,58.00
2018-08-16T04:27:35.031Z,60.00
2018-08-16T04:28:35.232Z,59.00
2018-08-16T04:29:35.469Z,59.00
2018-08-16T04:30:35.707Z,59.00
2018-08-16T04:31:35.943Z,59.00
2018-08-16T04:32:36.177Z,59.00
2018-08-16T04:33:36.403Z,59.00
2018-08-16T04:34:36.641Z,60.00
2018-08-16T04:35:36.868Z,59.00
2018-08-16T04:36:37.117Z,60.00
2018-08-16T04:37:37.339Z,59.00
2018-08-16T04:38:37.578Z,60.00
2018-08-16T04:39:37.808Z,60.00
2018-08-16T04:40:38.047Z,60.00
2018-08-16T04:41:38.320Z,59.00
2018-08-16T04:42:38.537Z,59.00
2018-08-16T04:43:38.759Z,61.00
2018-08-16T04:44:39.010Z,60.00
2018-08-16T04:45:39.264Z,59.00
2018-08-16T04:46:39.490Z,59.00
2018-08-16T04:47:39.732Z,59.00
2018-08-16T04:48:39.979Z,59.00
2018-08-16T04:49:40.193Z,60.00
2018-08-16T04:50:40.432Z,59.00
2018-08-16T04:51:40.682Z,58.00
2018-08-16T04:52:40.932Z,58.00
2018-08-16T04:53:41.149Z,58.00
2018-08-16T04:54:41.395Z,59.00
2018-08-16T04:55:41.609Z,62.00
2018-08-16T04:56:41.856Z,60.00
2018-08-16T04:57:42.081Z,59.00
2018-08-16T04:58:42.336Z,60.00
2018-08-16T04:59:42.544Z,59.00
2018-08-16T05:00:42.778Z,60.00
2018-08-16T05:01:43.011Z,58.00
2018-08-16T05:02:43.248Z,59.00
2018-08-16T05:03:43.475Z,60.00
2018-08-16T05:04:43.710Z,60.00
2018-08-16T05:05:43.936Z,60.00
2018-08-16T05:06:44.190Z,59.00
2018-08-16T05:07:44.411Z,59.00
2018-08-16T05:08:44.644Z,59.00
2018-08-16T05:09:44.880Z,60.00
2018-08-16T05:10:45.122Z,60.00
2018-08-16T05:11:45.346Z,60.00
2018-08-16T05:12:45.579Z,60.00
2018-08-16T05:13:45.811Z,60.00
2018-08-16T05:14:46.185Z,60.00
2018-08-16T05:15:46.260Z,59.00
2018-08-16T05:16:46.491Z,59.00
2018-08-16T05:17:46.755Z,60.00
2018-08-16T05:18:46.995Z,60.00
2018-08-16T05:19:47.239Z,59.00
2018-08-16T05:20:47.463Z,59.00
2018-08-16T05:21:47.690Z,59.00
2018-08-16T05:22:48.023Z,60.00
2018-08-16T05:23:48.315Z,59.00
2018-08-16T05:24:48.538Z,59.00
2018-08-16T05:25:48.772Z,59.00
2018-08-16T05:26:49.034Z,59.00
2018-08-16T05:27:49.275Z,60.00
2018-08-16T05:28:49.517Z,60.00
2018-08-16T05:29:49.755Z,59.00
2018-08-16T05:30:50.002Z,59.00
2018-08-16T05:31:50.224Z,59.00
2018-08-16T05:32:50.461Z,59.00
2018-08-16T05:33:50.705Z,59.00
2018-08-16T05:34:50.935Z,60.00
2018-08-16T05:35:51.177Z,59.00
2018-08-16T05:36:51.405Z,65.00
2018-08-16T05:37:51.635Z,65.00
2018-08-16T05:38:51.884Z,60.00
2018-08-16T05:39:52.122Z,65.00
2018-08-16T05:40:52.359Z,63.00
2018-08-16T05:41:52.602Z,59.00
2018-08-16T05:42:52.884Z,60.00
2018-08-16T05:43:53.089Z,60.00
2018-08-16T05:44:53.327Z,60.00
2018-08-16T05:45:53.569Z,60.00
2018-08-16T05:46:53.811Z,60.00
2018-08-16T05:47:54.053Z,60.00
2018-08-16T05:48:54.294Z,60.00
2018-08-16T05:49:54.535Z,60.00
2018-08-16T05:50:54.867Z,59.00
2018-08-16T05:51:55.018Z,59.00
2018-08-16T05:52:55.261Z,59.00
2018-08-16T05:53:55.499Z,60.00
2018-08-16T05:54:55.742Z,59.00
2018-08-16T05:55:55.982Z,61.00
2018-08-16T05:56:56.223Z,59.00
2018-08-16T05:57:56.464Z,60.00
2018-08-16T05:58:56.703Z,59.00
2018-08-16T05:59:56.946Z,59.00
2018-08-16T06:00:57.188Z,61.00
2018-08-16T06:01:57.437Z,60.00
2018-08-16T06:02:57.674Z,60.00
2018-08-16T06:03:57.918Z,59.00
2018-08-16T06:04:58.155Z,59.00
2018-08-16T06:05:58.397Z,59.00
2018-08-16T06:06:58.640Z,59.00
2018-08-16T06:07:58.882Z,61.00
2018-08-16T06:08:59.126Z,60.00
2018-08-16T06:09:59.367Z,59.00
2018-08-16T06:10:59.610Z,59.00
2018-08-16T06:11:59.849Z,59.00
2018-08-16T06:13:00.094Z,60.00
2018-08-16T06:14:00.335Z,59.00
2018-08-16T06:15:00.577Z,59.00
2018-08-16T06:16:00.819Z,61.00
2018-08-16T06:17:01.061Z,60.00
2018-08-16T06:18:01.300Z,59.00
2018-08-16T06:19:01.548Z,59.00
2018-08-16T06:20:01.786Z,60.00
2018-08-16T06:21:02.026Z,60.00
2018-08-16T06:22:02.270Z,63.00
2018-08-16T06:23:02.517Z,59.00
2018-08-16T06:24:02.785Z,59.00
2018-08-16T06:25:02.999Z,60.00
2018-08-16T06:26:03.241Z,60.00
2018-08-16T06:27:03.483Z,59.00
2018-08-16T06:28:03.724Z,59.00
2018-08-16T06:29:03.968Z,59.00
2018-08-16T06:30:04.212Z,59.00
2018-08-16T06:31:04.507Z,59.00
2018-08-16T06:32:04.697Z,60.00
2018-08-16T06:33:04.940Z,59.00
2018-08-16T06:34:05.184Z,60.00
2018-08-16T06:35:05.425Z,59.00
2018-08-16T06:36:05.670Z,60.00
2018-08-16T06:37:05.915Z,59.00
2018-08-16T06:38:06.155Z,59.00
2018-08-16T06:39:06.398Z,59.00
2018-08-16T06:40:06.642Z,59.00
2018-08-16T06:41:06.887Z,59.00
2018-08-16T06:42:07.129Z,60.00
2018-08-16T06:43:07.372Z,59.00
2018-08-16T06:44:07.613Z,59.00
2018-08-16T06:45:07.855Z,59.00
2018-08-16T06:46:08.151Z,59.00
2018-08-16T06:47:08.339Z,60.00
2018-08-16T06:48:08.584Z,61.00
2018-08-16T06:49:08.827Z,61.00
2018-08-16T06:50:09.071Z,61.00
2018-08-16T06:51:09.314Z,63.00
2018-08-16T06:52:09.560Z,67.00
2018-08-16T06:53:09.812Z,67.00
2018-08-16T06:54:10.051Z,60.00
2018-08-16T06:55:10.296Z,58.00
2018-08-16T06:56:10.538Z,58.00
2018-08-16T06:57:10.781Z,59.00
2018-08-16T06:58:11.045Z,61.00
2018-08-16T06:59:11.274Z,63.00
2018-08-16T07:00:11.518Z,58.00
2018-08-16T07:01:11.762Z,58.00
2018-08-16T07:02:12.005Z,59.00
2018-08-16T07:03:12.250Z,58.00
2018-08-16T07:04:12.496Z,58.00
2018-08-16T07:05:12.744Z,58.00
2018-08-16T07:06:12.987Z,65.00
2018-08-16T07:07:13.231Z,58.00
2018-08-16T07:08:13.475Z,60.00
2018-08-16T07:09:13.720Z,58.00
2018-08-16T07:10:13.965Z,59.00
2018-08-16T07:11:14.211Z,59.00
2018-08-16T07:12:14.479Z,59.00
2018-08-16T07:13:14.704Z,59.00
2018-08-16T07:14:14.950Z,58.00
2018-08-16T07:15:15.195Z,59.00
2018-08-16T07:16:15.442Z,59.00
2018-08-16T07:17:15.690Z,59.00
2018-08-16T07:18:15.935Z,59.00
2018-08-16T07:19:16.181Z,59.00
2018-08-16T07:20:16.428Z,60.00
2018-08-16T07:21:16.680Z,60.00
2018-08-16T07:22:16.925Z,59.00
2018-08-16T07:23:17.174Z,59.00
2018-08-16T07:24:17.434Z,60.00
2018-08-16T07:25:17.671Z,59.00
2018-08-16T07:26:17.918Z,60.00
2018-08-16T07:27:18.168Z,60.00
2018-08-16T07:28:18.416Z,60.00
2018-08-16T07:29:18.664Z,59.00
2018-08-16T07:30:18.914Z,59.00
2018-08-16T07:31:19.161Z,59.00
2018-08-16T07:32:19.410Z,59.00
2018-08-16T07:33:19.659Z,59.00
2018-08-16T07:34:19.908Z,59.00
2018-08-16T07:35:20.157Z,59.00
2018-08-16T07:36:20.406Z,59.00
2018-08-16T07:37:20.655Z,59.00
2018-08-16T07:38:20.904Z,59.00
2018-08-16T07:39:21.151Z,59.00
2018-08-16T07:40:21.402Z,66.00
2018-08-16T07:41:21.651Z,59.00
2018-08-16T07:42:21.899Z,59.00
2018-08-16T07:43:22.150Z,59.00
2018-08-16T07:44:22.396Z,59.00
2018-08-16T07:45:22.644Z,60.00
2018-08-16T07:46:22.996Z,60.00
2018-08-16T07:47:23.144Z,60.00
2018-08-16T07:48:23.395Z,63.00
2018-08-16T07:49:23.655Z,62.00
2018-08-16T07:50:23.898Z,60.00
2018-08-16T07:51:24.260Z,58.00
2018-08-16T07:52:24.397Z,59.00
2018-08-16T07:53:24.645Z,60.00
2018-08-16T07:54:24.895Z,59.00
2018-08-16T07:55:25.144Z,58.00
2018-08-16T07:56:25.395Z,58.00
2018-08-16T07:57:25.647Z,58.00
2018-08-16T07:58:25.982Z,58.00
2018-08-16T07:59:26.149Z,58.00
2018-08-16T08:00:26.398Z,60.00
2018-08-16T08:01:26.651Z,60.00
2018-08-16T08:02:26.901Z,58.00
2018-08-16T08:03:27.152Z,59.00
2018-08-16T08:04:27.402Z,59.00
2018-08-16T08:05:27.654Z,66.00
2018-08-16T08:06:27.905Z,60.00
2018-08-16T08:07:28.157Z,64.00
2018-08-16T08:08:28.408Z,60.00
2018-08-16T08:09:28.846Z,60.00
2018-08-16T08:10:28.913Z,60.00
2018-08-16T08:11:29.166Z,64.00
2018-08-16T08:12:29.419Z,60.00
2018-08-16T08:13:29.672Z,60.00
2018-08-16T08:14:29.925Z,60.00
2018-08-16T08:15:30.283Z,60.00
2018-08-16T08:16:30.434Z,60.00
2018-08-16T08:17:30.686Z,60.00
2018-08-16T08:18:30.943Z,60.00
2018-08-16T08:19:31.194Z,60.00
2018-08-16T08:20:31.448Z,60.00
2018-08-16T08:21:31.701Z,60.00
2018-08-16T08:22:31.952Z,60.00
2018-08-16T08:23:32.205Z,60.00
2018-08-16T08:24:32.457Z,60.00
2018-08-16T08:25:32.760Z,59.00
2018-08-16T08:26:32.962Z,58.00
2018-08-16T08:27:33.214Z,59.00
2018-08-16T08:28:33.468Z,65.00
2018-08-16T08:29:33.720Z,59.00
2018-08-16T08:30:33.972Z,59.00
2018-08-16T08:31:34.286Z,60.00
2018-08-16T08:32:34.477Z,60.00
2018-08-16T08:33:34.731Z,59.00
2018-08-16T08:34:34.980Z,58.00
2018-08-16T08:35:35.235Z,60.00
2018-08-16T08:36:35.487Z,61.00
2018-08-16T08:37:35.738Z,60.00
2018-08-16T08:38:36.045Z,60.00
2018-08-16T08:39:36.243Z,58.00
2018-08-16T08:40:36.494Z,58.00
2018-08-16T08:41:36.748Z,58.00
2018-08-16T08:42:37.001Z,58.00
2018-08-16T08:43:37.254Z,60.00
2018-08-16T08:44:37.506Z,58.00
2018-08-16T08:45:37.758Z,59.00
2018-08-16T08:46:38.012Z,58.00
2018-08-16T08:47:38.264Z,58.00
2018-08-16T08:48:38.518Z,59.00
2018-08-16T08:49:38.772Z,61.00
2018-08-16T08:50:39.025Z,60.00
2018-08-16T08:51:39.278Z,59.00
2018-08-16T08:52:39.532Z,60.00
2018-08-16T08:53:39.785Z,58.00
2018-08-16T08:54:40.038Z,62.00
2018-08-16T08:55:40.292Z,62.00
2018-08-16T08:56:40.545Z,60.00
2018-08-16T08:57:40.800Z,64.00
2018-08-16T08:58:41.054Z,60.00
2018-08-16T08:59:41.310Z,64.00
2018-08-16T09:00:41.561Z,61.00
2018-08-16T09:01:41.819Z,63.00
2018-08-16T09:02:42.070Z,62.00
2018-08-16T09:03:42.325Z,58.00
2018-08-16T09:04:42.577Z,58.00
2018-08-16T09:05:42.830Z,59.00
2018-08-16T09:06:43.137Z,61.00
2018-08-16T09:07:43.337Z,65.00
2018-08-16T09:08:43.593Z,60.00
2018-08-16T09:09:43.845Z,59.00
2018-08-16T09:10:44.098Z,60.00
2018-08-16T09:11:44.351Z,60.00
2018-08-16T09:12:44.603Z,60.00
2018-08-16T09:13:44.861Z,60.00
2018-08-16T09:14:45.127Z,62.00
2018-08-16T09:15:45.366Z,64.00
2018-08-16T09:16:45.616Z,68.00
2018-08-16T09:17:45.870Z,64.00
2018-08-16T09:18:46.127Z,63.00
2018-08-16T09:19:46.379Z,65.00
2018-08-16T09:20:46.633Z,64.00
2018-08-16T09:21:46.886Z,61.00
2018-08-16T09:22:47.142Z,62.00
2018-08-16T09:23:47.392Z,63.00
2018-08-16T09:24:47.646Z,60.00
2018-08-16T09:25:47.897Z,60.00
2018-08-16T09:26:48.156Z,60.00
2018-08-16T09:27:48.402Z,62.00
2018-08-16T09:28:48.655Z,64.00
2018-08-16T09:29:48.911Z,66.00
2018-08-16T09:30:49.163Z,65.00
2018-08-16T09:31:49.416Z,61.00
2018-08-16T09:32:49.668Z,64.00
2018-08-16T09:33:49.925Z,62.00
2018-08-16T09:34:50.176Z,62.00
2018-08-16T09:35:50.448Z,65.00
2018-08-16T09:36:50.687Z,62.00
2018-08-16T09:37:50.933Z,63.00
2018-08-16T09:38:51.187Z,65.00
2018-08-16T09:39:51.500Z,64.00
2018-08-16T09:40:51.699Z,60.00
2018-08-16T09:41:51.948Z,62.00
2018-08-16T09:42:52.198Z,62.00
2018-08-16T09:43:52.454Z,65.00
2018-08-16T09:44:52.707Z,61.00
2018-08-16T09:45:52.968Z,61.00
2018-08-16T09:46:53.213Z,59.00
2018-08-16T09:47:53.469Z,59.00
2018-08-16T09:48:53.723Z,65.00
2018-08-16T09:49:53.972Z,61.00
2018-08-16T09:50:54.226Z,59.00
2018-08-16T09:51:54.481Z,60.00
2018-08-16T09:52:54.733Z,63.00
2018-08-16T09:53:54.985Z,66.00
2018-08-16T09:54:55.238Z,64.00
2018-08-16T09:55:55.491Z,64.00
2018-08-16T09:56:55.749Z,65.00
2018-08-16T09:57:55.998Z,65.00
2018-08-16T09:58:56.251Z,63.00
2018-08-16T09:59:56.506Z,65.00
2018-08-16T10:00:56.759Z,62.00
2018-08-16T10:01:57.018Z,62.00
2018-08-16T10:02:57.268Z,63.00
2018-08-16T10:03:57.519Z,65.00
2018-08-16T10:04:57.775Z,65.00
2018-08-16T10:05:58.028Z,60.00
2018-08-16T10:06:58.281Z,67.00
2018-08-16T10:07:58.535Z,61.00
2018-08-16T10:08:58.789Z,64.00
2018-08-16T10:09:59.041Z,64.00
2018-08-16T10:10:59.295Z,64.00
2018-08-16T10:11:59.548Z,62.00
2018-08-16T10:12:59.801Z,61.00
2018-08-16T10:14:00.055Z,60.00
2018-08-16T10:15:00.308Z,59.00
2018-08-16T10:16:00.563Z,60.00
2018-08-16T10:17:00.814Z,63.00
2018-08-16T10:18:01.067Z,62.00
2018-08-16T10:19:01.322Z,65.00
2018-08-16T10:20:01.575Z,66.00
2018-08-16T10:21:01.831Z,62.00
2018-08-16T10:22:02.086Z,67.00
2018-08-16T10:23:02.341Z,64.00
2018-08-16T10:24:02.595Z,64.00
2018-08-16T10:25:02.853Z,62.00
2018-08-16T10:26:03.104Z,62.00
2018-08-16T10:27:03.432Z,61.00
2018-08-16T10:28:03.616Z,62.00
2018-08-16T10:29:03.870Z,63.00
2018-08-16T10:30:04.125Z,67.00
2018-08-16T10:31:04.380Z,63.00
2018-08-16T10:32:04.635Z,65.00
2018-08-16T10:33:04.891Z,67.00
2018-08-16T10:34:05.146Z,64.00
2018-08-16T10:35:05.401Z,65.00
2018-08-16T10:36:05.655Z,63.00
2018-08-16T10:37:05.913Z,60.00
2018-08-16T10:38:06.167Z,61.00
2018-08-16T10:39:06.421Z,64.00
2018-08-16T10:40:06.675Z,63.00
2018-08-16T10:41:06.929Z,61.00
2018-08-16T10:42:07.185Z,61.00
2018-08-16T10:43:07.441Z,63.00
2018-08-16T10:44:07.696Z,69.00
2018-08-16T10:45:07.953Z,63.00
2018-08-16T10:46:08.205Z,61.00
2018-08-16T10:47:08.462Z,62.00
2018-08-16T10:48:08.718Z,67.00
2018-08-16T10:49:08.972Z,66.00
2018-08-16T10:50:09.231Z,70.00
2018-08-16T10:51:09.483Z,66.00
2018-08-16T10:52:09.742Z,63.00
2018-08-16T10:53:09.993Z,65.00
2018-08-16T10:54:10.250Z,63.00
2018-08-16T10:55:10.505Z,61.00
2018-08-16T10:56:10.763Z,61.00
2018-08-16T10:57:11.018Z,61.00
2018-08-16T10:58:11.271Z,59.00
2018-08-16T10:59:11.526Z,65.00
2018-08-16T11:00:11.781Z,64.00
2018-08-16T11:01:12.071Z,63.00
2018-08-16T11:02:12.292Z,65.00
2018-08-16T11:03:12.548Z,66.00
2018-08-16T11:04:12.803Z,64.00
2018-08-16T11:05:13.058Z,66.00
2018-08-16T11:06:13.313Z,61.00
2018-08-16T11:07:13.569Z,64.00
2018-08-16T11:08:13.824Z,63.00
2018-08-16T11:09:14.079Z,62.00
2018-08-16T11:10:14.332Z,61.00
2018-08-16T11:11:14.586Z,60.00
2018-08-16T11:12:14.841Z,60.00
2018-08-16T11:13:15.095Z,61.00
2018-08-16T11:14:15.351Z,61.00
2018-08-16T11:15:15.610Z,67.00
2018-08-16T11:16:15.864Z,66.00
2018-08-16T11:17:16.123Z,63.00
2018-08-16T11:18:16.379Z,60.00
2018-08-16T11:19:16.633Z,60.00
2018-08-16T11:20:16.889Z,65.00
2018-08-16T11:21:17.148Z,65.00
2018-08-16T11:22:17.406Z,66.00
2018-08-16T11:23:17.665Z,67.00
2018-08-16T11:24:17.921Z,61.00
2018-08-16T11:25:18.178Z,63.00
2018-08-16T11:26:18.431Z,61.00
2018-08-16T11:27:18.689Z,65.00
2018-08-16T11:28:18.944Z,65.00
2018-08-16T11:29:19.239Z,62.00
2018-08-16T11:30:19.457Z,59.00
2018-08-16T11:31:19.715Z,60.00
2018-08-16T11:32:19.969Z,59.00
2018-08-16T11:33:20.225Z,61.00
2018-08-16T11:34:20.480Z,61.00
2018-08-16T11:35:20.735Z,61.00
2018-08-16T11:36:20.992Z,65.00
2018-08-16T11:37:21.247Z,60.00
2018-08-16T11:38:21.504Z,66.00
2018-08-16T11:39:21.759Z,58.00
2018-08-16T11:40:22.015Z,59.00
2018-08-16T11:41:22.272Z,60.00
2018-08-16T11:42:22.529Z,62.00
2018-08-16T11:43:22.785Z,61.00
2018-08-16T11:44:23.041Z,62.00
2018-08-16T11:45:23.298Z,61.00
2018-08-16T11:46:23.555Z,60.00
2018-08-16T11:47:23.809Z,59.00
2018-08-16T11:48:24.068Z,62.00
2018-08-16T11:49:24.322Z,61.00
2018-08-16T11:50:24.579Z,63.00
2018-08-16T11:51:24.837Z,70.00
2018-08-16T11:52:25.095Z,63.00
2018-08-16T11:53:25.350Z,65.00
2018-08-16T11:54:25.603Z,70.00
2018-08-16T11:55:25.860Z,63.00
2018-08-16T11:56:26.119Z,66.00
2018-08-16T11:57:26.377Z,65.00
2018-08-16T11:58:26.634Z,64.00
2018-08-16T11:59:26.889Z,63.00
2018-08-16T12:00:27.146Z,60.00
2018-08-16T12:01:27.402Z,60.00
2018-08-16T12:02:27.660Z,62.00
2018-08-16T12:03:27.914Z,62.00
2018-08-16T12:04:28.172Z,62.00
2018-08-16T12:05:28.426Z,63.00
2018-08-16T12:06:28.683Z,62.00
2018-08-16T12:07:28.939Z,66.00
2018-08-16T12:08:29.196Z,62.00
2018-08-16T12:09:29.453Z,68.00
2018-08-16T12:10:29.709Z,65.00
2018-08-16T12:11:29.965Z,65.00
2018-08-16T12:12:30.222Z,63.00
2018-08-16T12:13:30.478Z,67.00
2018-08-16T12:14:30.740Z,64.00
2018-08-16T12:15:30.997Z,62.00
2018-08-16T12:16:31.248Z,62.00
2018-08-16T12:17:31.506Z,61.00
2018-08-16T12:18:31.763Z,62.00
2018-08-16T12:19:32.018Z,61.00
2018-08-16T12:20:32.274Z,61.00
2018-08-16T12:21:32.530Z,59.00
2018-08-16T12:22:32.785Z,58.00
2018-08-16T12:23:33.044Z,60.00
2018-08-16T12:24:33.296Z,62.00
2018-08-16T12:25:33.555Z,66.00
2018-08-16T12:26:33.812Z,63.00
2018-08-16T12:27:34.068Z,61.00
2018-08-16T12:28:34.323Z,60.00
2018-08-16T12:29:34.581Z,64.00
2018-08-16T12:30:34.836Z,61.00
2018-08-16T12:31:35.092Z,60.00
2018-08-16T12:32:35.348Z,60.00
2018-08-16T12:33:35.604Z,60.00
2018-08-16T12:34:35.861Z,60.00
2018-08-16T12:35:36.114Z,60.00
2018-08-16T12:36:36.372Z,63.00
2018-08-16T12:37:36.631Z,64.00
2018-08-16T12:38:36.885Z,63.00
2018-08-16T12:39:37.143Z,62.00
2018-08-16T12:40:37.435Z,67.00
2018-08-16T12:41:37.655Z,64.00
2018-08-16T12:42:37.914Z,65.00
2018-08-16T12:43:38.169Z,63.00
2018-08-16T12:44:38.425Z,62.00
2018-08-16T12:45:38.682Z,64.00
2018-08-16T12:46:38.937Z,62.00
2018-08-16T12:47:39.236Z,60.00
2018-08-16T12:48:39.449Z,58.00
2018-08-16T12:49:39.704Z,58.00
2018-08-16T12:50:39.960Z,60.00
2018-08-16T12:51:40.216Z,67.00
2018-08-16T12:52:40.471Z,59.00
2018-08-16T12:53:40.768Z,65.00
2018-08-16T12:54:40.992Z,64.00
2018-08-16T12:55:41.241Z,64.00